sensor_id;sensor_type;location;lat;lon;timestamp;P1;durP1;ratioP1;P2;durP2;ratioP2
8100;SDS011;4093;53.470;9.832;2024-02-15T00:00:31;48.87;;;24.93;;
8100;SDS011;4093;53.470;9.832;2024-02-15T00:02:59;43.47;;;22.47;;
8100;SDS011;4093;53.470;9.832;2024-02-15T00:05:27;42.40;;;22.73;;
8100;SDS011;4093;53.470;9.832;2024-02-15T00:07:54;49.73;;;25.20;;
8100;SDS011;4093;53.470;9.832;2024-02-15T00:10:24;46.47;;;24.43;;
8100;SDS011;4093;53.470;9.832;2024-02-15T00:12:51;47.40;;;23.70;;
8100;SDS011;4093;53.470;9.832;2024-02-15T00:15:19;48.40;;;25.70;;
8100;SDS011;4093;53.470;9.832;2024-02-15T00:17:47;42.37;;;24.20;;
8100;SDS011;4093;53.470;9.832;2024-02-15T00:20:15;45.57;;;25.10;;
8100;SDS011;4093;53.470;9.832;2024-02-15T00:22:44;46.23;;;25.47;;
8100;SDS011;4093;53.470;9.832;2024-02-15T00:25:11;41.40;;;23.57;;
8100;SDS011;4093;53.470;9.832;2024-02-15T00:27:41;46.73;;;26.10;;
8100;SDS011;4093;53.470;9.832;2024-02-15T00:30:09;49.93;;;26.63;;
8100;SDS011;4093;53.470;9.832;2024-02-15T00:32:38;47.80;;;25.80;;
8100;SDS011;4093;53.470;9.832;2024-02-15T00:35:06;48.60;;;26.03;;
8100;SDS011;4093;53.470;9.832;2024-02-15T00:37:36;43.73;;;25.70;;
8100;SDS011;4093;53.470;9.832;2024-02-15T00:40:05;51.10;;;25.33;;
8100;SDS011;4093;53.470;9.832;2024-02-15T00:42:33;50.80;;;27.00;;
8100;SDS011;4093;53.470;9.832;2024-02-15T00:45:03;50.37;;;25.13;;
8100;SDS011;4093;53.470;9.832;2024-02-15T00:47:31;46.13;;;25.90;;
8100;SDS011;4093;53.470;9.832;2024-02-15T00:49:59;41.60;;;22.83;;
8100;SDS011;4093;53.470;9.832;2024-02-15T00:52:27;48.87;;;25.47;;
8100;SDS011;4093;53.470;9.832;2024-02-15T00:54:57;46.67;;;22.70;;
8100;SDS011;4093;53.470;9.832;2024-02-15T00:57:24;41.13;;;22.60;;
8100;SDS011;4093;53.470;9.832;2024-02-15T00:59:52;42.90;;;21.37;;
8100;SDS011;4093;53.470;9.832;2024-02-15T01:02:21;48.57;;;24.03;;
8100;SDS011;4093;53.470;9.832;2024-02-15T01:04:50;43.93;;;22.30;;
8100;SDS011;4093;53.470;9.832;2024-02-15T01:07:19;44.27;;;21.90;;
8100;SDS011;4093;53.470;9.832;2024-02-15T01:09:47;42.03;;;22.23;;
8100;SDS011;4093;53.470;9.832;2024-02-15T01:12:15;45.93;;;23.83;;
8100;SDS011;4093;53.470;9.832;2024-02-15T01:14:43;42.63;;;22.60;;
8100;SDS011;4093;53.470;9.832;2024-02-15T01:17:11;43.83;;;23.00;;
8100;SDS011;4093;53.470;9.832;2024-02-15T01:19:40;48.27;;;24.73;;
8100;SDS011;4093;53.470;9.832;2024-02-15T01:22:07;39.40;;;22.50;;
8100;SDS011;4093;53.470;9.832;2024-02-15T01:24:35;47.60;;;25.23;;
8100;SDS011;4093;53.470;9.832;2024-02-15T01:27:03;48.23;;;24.37;;
8100;SDS011;4093;53.470;9.832;2024-02-15T01:29:34;48.97;;;24.87;;
8100;SDS011;4093;53.470;9.832;2024-02-15T01:32:02;47.77;;;24.87;;
8100;SDS011;4093;53.470;9.832;2024-02-15T01:34:31;50.40;;;26.93;;
8100;SDS011;4093;53.470;9.832;2024-02-15T01:37:00;49.73;;;24.90;;
8100;SDS011;4093;53.470;9.832;2024-02-15T01:39:28;49.73;;;25.27;;
8100;SDS011;4093;53.470;9.832;2024-02-15T01:41:56;56.70;;;27.50;;
8100;SDS011;4093;53.470;9.832;2024-02-15T01:44:25;46.97;;;23.90;;
8100;SDS011;4093;53.470;9.832;2024-02-15T01:46:53;52.87;;;27.23;;
8100;SDS011;4093;53.470;9.832;2024-02-15T01:49:21;54.63;;;28.30;;
8100;SDS011;4093;53.470;9.832;2024-02-15T01:51:50;44.93;;;24.93;;
8100;SDS011;4093;53.470;9.832;2024-02-15T01:54:21;51.27;;;25.90;;
8100;SDS011;4093;53.470;9.832;2024-02-15T01:56:50;48.43;;;26.47;;
8100;SDS011;4093;53.470;9.832;2024-02-15T01:59:18;47.33;;;25.60;;
8100;SDS011;4093;53.470;9.832;2024-02-15T02:01:46;51.07;;;27.13;;
8100;SDS011;4093;53.470;9.832;2024-02-15T02:04:15;54.47;;;26.00;;
8100;SDS011;4093;53.470;9.832;2024-02-15T02:06:43;44.83;;;24.07;;
8100;SDS011;4093;53.470;9.832;2024-02-15T02:09:11;49.50;;;26.63;;
8100;SDS011;4093;53.470;9.832;2024-02-15T02:11:41;47.37;;;26.27;;
8100;SDS011;4093;53.470;9.832;2024-02-15T02:14:12;48.50;;;25.97;;
8100;SDS011;4093;53.470;9.832;2024-02-15T02:16:40;47.43;;;25.17;;
8100;SDS011;4093;53.470;9.832;2024-02-15T02:19:08;48.13;;;25.60;;
8100;SDS011;4093;53.470;9.832;2024-02-15T02:21:36;49.70;;;24.60;;
8100;SDS011;4093;53.470;9.832;2024-02-15T02:24:08;50.07;;;24.43;;
8100;SDS011;4093;53.470;9.832;2024-02-15T02:26:42;46.10;;;24.80;;
8100;SDS011;4093;53.470;9.832;2024-02-15T02:29:10;50.80;;;24.20;;
8100;SDS011;4093;53.470;9.832;2024-02-15T02:31:38;41.97;;;23.33;;
8100;SDS011;4093;53.470;9.832;2024-02-15T02:34:06;39.57;;;22.23;;
8100;SDS011;4093;53.470;9.832;2024-02-15T02:36:35;41.67;;;21.50;;
8100;SDS011;4093;53.470;9.832;2024-02-15T02:39:04;39.63;;;21.87;;
8100;SDS011;4093;53.470;9.832;2024-02-15T02:41:33;40.07;;;23.13;;
8100;SDS011;4093;53.470;9.832;2024-02-15T02:44:03;35.97;;;19.67;;
8100;SDS011;4093;53.470;9.832;2024-02-15T02:46:30;34.77;;;19.10;;
8100;SDS011;4093;53.470;9.832;2024-02-15T02:48:58;38.50;;;20.63;;
8100;SDS011;4093;53.470;9.832;2024-02-15T02:51:26;32.40;;;18.90;;
8100;SDS011;4093;53.470;9.832;2024-02-15T02:53:54;37.30;;;19.20;;
8100;SDS011;4093;53.470;9.832;2024-02-15T02:56:22;30.87;;;17.90;;
8100;SDS011;4093;53.470;9.832;2024-02-15T02:58:50;31.80;;;18.30;;
8100;SDS011;4093;53.470;9.832;2024-02-15T03:01:21;35.63;;;19.77;;
8100;SDS011;4093;53.470;9.832;2024-02-15T03:03:51;29.63;;;16.67;;
8100;SDS011;4093;53.470;9.832;2024-02-15T03:06:21;28.57;;;16.50;;
8100;SDS011;4093;53.470;9.832;2024-02-15T03:08:51;29.60;;;15.90;;
8100;SDS011;4093;53.470;9.832;2024-02-15T03:11:20;27.37;;;15.97;;
8100;SDS011;4093;53.470;9.832;2024-02-15T03:13:48;34.53;;;16.97;;
8100;SDS011;4093;53.470;9.832;2024-02-15T03:16:16;34.37;;;18.67;;
8100;SDS011;4093;53.470;9.832;2024-02-15T03:18:45;40.50;;;19.57;;
8100;SDS011;4093;53.470;9.832;2024-02-15T03:21:15;37.67;;;19.87;;
8100;SDS011;4093;53.470;9.832;2024-02-15T03:23:44;38.93;;;20.00;;
8100;SDS011;4093;53.470;9.832;2024-02-15T03:26:12;43.00;;;22.77;;
8100;SDS011;4093;53.470;9.832;2024-02-15T03:28:40;48.13;;;23.33;;
8100;SDS011;4093;53.470;9.832;2024-02-15T03:31:08;47.27;;;22.67;;
8100;SDS011;4093;53.470;9.832;2024-02-15T03:33:36;48.03;;;23.40;;
8100;SDS011;4093;53.470;9.832;2024-02-15T03:36:07;47.17;;;24.60;;
8100;SDS011;4093;53.470;9.832;2024-02-15T03:38:36;45.87;;;22.80;;
8100;SDS011;4093;53.470;9.832;2024-02-15T03:41:04;51.93;;;24.47;;
8100;SDS011;4093;53.470;9.832;2024-02-15T03:43:32;46.20;;;22.93;;
8100;SDS011;4093;53.470;9.832;2024-02-15T03:46:00;51.40;;;25.77;;
8100;SDS011;4093;53.470;9.832;2024-02-15T03:48:28;55.20;;;25.40;;
8100;SDS011;4093;53.470;9.832;2024-02-15T03:50:57;55.10;;;26.17;;
8100;SDS011;4093;53.470;9.832;2024-02-15T03:53:26;47.63;;;23.93;;
8100;SDS011;4093;53.470;9.832;2024-02-15T03:55:57;58.63;;;27.17;;
8100;SDS011;4093;53.470;9.832;2024-02-15T03:58:26;44.87;;;23.90;;
8100;SDS011;4093;53.470;9.832;2024-02-15T04:00:54;50.30;;;26.17;;
8100;SDS011;4093;53.470;9.832;2024-02-15T04:03:23;48.47;;;25.33;;
8100;SDS011;4093;53.470;9.832;2024-02-15T04:05:51;49.20;;;25.80;;
8100;SDS011;4093;53.470;9.832;2024-02-15T04:08:19;49.53;;;24.90;;
8100;SDS011;4093;53.470;9.832;2024-02-15T04:10:48;52.27;;;26.70;;
8100;SDS011;4093;53.470;9.832;2024-02-15T04:13:19;57.20;;;27.60;;
8100;SDS011;4093;53.470;9.832;2024-02-15T04:15:46;49.13;;;25.70;;
8100;SDS011;4093;53.470;9.832;2024-02-15T04:18:17;58.60;;;27.53;;
8100;SDS011;4093;53.470;9.832;2024-02-15T04:20:44;59.20;;;27.47;;
8100;SDS011;4093;53.470;9.832;2024-02-15T04:23:13;56.60;;;27.27;;
8100;SDS011;4093;53.470;9.832;2024-02-15T04:25:40;54.43;;;27.63;;
8100;SDS011;4093;53.470;9.832;2024-02-15T04:28:11;57.83;;;27.37;;
8100;SDS011;4093;53.470;9.832;2024-02-15T04:30:39;53.37;;;26.40;;
8100;SDS011;4093;53.470;9.832;2024-02-15T04:33:07;54.23;;;26.93;;
8100;SDS011;4093;53.470;9.832;2024-02-15T04:35:35;49.70;;;26.77;;
8100;SDS011;4093;53.470;9.832;2024-02-15T04:38:03;54.80;;;27.50;;
8100;SDS011;4093;53.470;9.832;2024-02-15T04:40:30;53.50;;;26.30;;
8100;SDS011;4093;53.470;9.832;2024-02-15T04:42:58;53.73;;;26.30;;
8100;SDS011;4093;53.470;9.832;2024-02-15T04:45:29;49.73;;;27.10;;
8100;SDS011;4093;53.470;9.832;2024-02-15T04:47:58;52.20;;;25.57;;
8100;SDS011;4093;53.470;9.832;2024-02-15T04:50:28;55.37;;;28.20;;
8100;SDS011;4093;53.470;9.832;2024-02-15T04:52:57;54.13;;;26.57;;
8100;SDS011;4093;53.470;9.832;2024-02-15T04:55:24;52.77;;;26.27;;
8100;SDS011;4093;53.470;9.832;2024-02-15T04:57:53;54.03;;;25.60;;
8100;SDS011;4093;53.470;9.832;2024-02-15T05:00:22;53.93;;;27.00;;
8100;SDS011;4093;53.470;9.832;2024-02-15T05:02:53;54.77;;;27.40;;
8100;SDS011;4093;53.470;9.832;2024-02-15T05:05:21;49.00;;;26.13;;
8100;SDS011;4093;53.470;9.832;2024-02-15T05:07:51;54.60;;;27.00;;
8100;SDS011;4093;53.470;9.832;2024-02-15T05:10:18;49.40;;;25.63;;
8100;SDS011;4093;53.470;9.832;2024-02-15T05:12:46;53.17;;;26.97;;
8100;SDS011;4093;53.470;9.832;2024-02-15T05:15:15;54.63;;;27.30;;
8100;SDS011;4093;53.470;9.832;2024-02-15T05:17:44;53.87;;;27.97;;
8100;SDS011;4093;53.470;9.832;2024-02-15T05:20:16;55.30;;;25.67;;
8100;SDS011;4093;53.470;9.832;2024-02-15T05:22:43;56.03;;;28.13;;
8100;SDS011;4093;53.470;9.832;2024-02-15T05:25:16;57.33;;;27.53;;
8100;SDS011;4093;53.470;9.832;2024-02-15T05:27:50;58.83;;;29.10;;
8100;SDS011;4093;53.470;9.832;2024-02-15T05:30:20;59.37;;;26.90;;
8100;SDS011;4093;53.470;9.832;2024-02-15T05:32:48;57.03;;;26.90;;
8100;SDS011;4093;53.470;9.832;2024-02-15T05:35:18;53.57;;;26.03;;
8100;SDS011;4093;53.470;9.832;2024-02-15T05:37:45;66.20;;;29.37;;
8100;SDS011;4093;53.470;9.832;2024-02-15T05:40:13;59.87;;;27.53;;
8100;SDS011;4093;53.470;9.832;2024-02-15T05:42:42;59.43;;;27.90;;
8100;SDS011;4093;53.470;9.832;2024-02-15T05:45:27;54.93;;;27.13;;
8100;SDS011;4093;53.470;9.832;2024-02-15T05:47:58;64.47;;;28.33;;
8100;SDS011;4093;53.470;9.832;2024-02-15T05:50:28;59.43;;;26.40;;
8100;SDS011;4093;53.470;9.832;2024-02-15T05:52:58;64.90;;;27.80;;
8100;SDS011;4093;53.470;9.832;2024-02-15T05:55:27;61.67;;;28.60;;
8100;SDS011;4093;53.470;9.832;2024-02-15T05:57:55;53.33;;;26.10;;
8100;SDS011;4093;53.470;9.832;2024-02-15T06:00:23;58.23;;;26.87;;
8100;SDS011;4093;53.470;9.832;2024-02-15T06:02:51;58.27;;;27.13;;
8100;SDS011;4093;53.470;9.832;2024-02-15T06:05:19;57.40;;;26.60;;
8100;SDS011;4093;53.470;9.832;2024-02-15T06:07:48;62.03;;;28.97;;
8100;SDS011;4093;53.470;9.832;2024-02-15T06:10:16;65.87;;;27.77;;
8100;SDS011;4093;53.470;9.832;2024-02-15T06:12:45;65.47;;;28.70;;
8100;SDS011;4093;53.470;9.832;2024-02-15T06:15:13;60.87;;;26.67;;
8100;SDS011;4093;53.470;9.832;2024-02-15T06:17:43;61.30;;;27.67;;
8100;SDS011;4093;53.470;9.832;2024-02-15T06:20:13;70.33;;;29.97;;
8100;SDS011;4093;53.470;9.832;2024-02-15T06:22:41;64.00;;;27.47;;
8100;SDS011;4093;53.470;9.832;2024-02-15T06:25:10;60.90;;;27.60;;
8100;SDS011;4093;53.470;9.832;2024-02-15T06:27:39;64.00;;;27.73;;
8100;SDS011;4093;53.470;9.832;2024-02-15T06:30:09;65.17;;;28.97;;
8100;SDS011;4093;53.470;9.832;2024-02-15T06:32:54;54.97;;;26.93;;
8100;SDS011;4093;53.470;9.832;2024-02-15T06:35:40;61.83;;;26.07;;
8100;SDS011;4093;53.470;9.832;2024-02-15T06:38:25;61.27;;;28.10;;
8100;SDS011;4093;53.470;9.832;2024-02-15T06:41:13;59.93;;;27.73;;
8100;SDS011;4093;53.470;9.832;2024-02-15T06:43:41;58.87;;;27.10;;
8100;SDS011;4093;53.470;9.832;2024-02-15T06:46:09;69.90;;;26.60;;
8100;SDS011;4093;53.470;9.832;2024-02-15T06:48:37;69.23;;;29.40;;
8100;SDS011;4093;53.470;9.832;2024-02-15T06:51:07;67.90;;;28.17;;
8100;SDS011;4093;53.470;9.832;2024-02-15T06:53:39;69.90;;;28.47;;
8100;SDS011;4093;53.470;9.832;2024-02-15T06:56:08;68.53;;;29.47;;
8100;SDS011;4093;53.470;9.832;2024-02-15T06:58:37;75.17;;;30.27;;
8100;SDS011;4093;53.470;9.832;2024-02-15T07:01:06;71.73;;;29.13;;
8100;SDS011;4093;53.470;9.832;2024-02-15T07:03:35;74.13;;;31.23;;
8100;SDS011;4093;53.470;9.832;2024-02-15T07:06:04;71.33;;;29.90;;
8100;SDS011;4093;53.470;9.832;2024-02-15T07:08:32;69.60;;;29.73;;
8100;SDS011;4093;53.470;9.832;2024-02-15T07:11:00;69.80;;;28.20;;
8100;SDS011;4093;53.470;9.832;2024-02-15T07:13:30;66.77;;;28.63;;
8100;SDS011;4093;53.470;9.832;2024-02-15T07:16:01;69.10;;;29.83;;
8100;SDS011;4093;53.470;9.832;2024-02-15T07:18:30;65.33;;;28.97;;
8100;SDS011;4093;53.470;9.832;2024-02-15T07:20:58;71.33;;;30.83;;
8100;SDS011;4093;53.470;9.832;2024-02-15T07:23:28;65.33;;;29.23;;
8100;SDS011;4093;53.470;9.832;2024-02-15T07:25:56;67.90;;;29.13;;
8100;SDS011;4093;53.470;9.832;2024-02-15T07:28:24;67.03;;;28.63;;
8100;SDS011;4093;53.470;9.832;2024-02-15T07:30:53;58.83;;;26.93;;
8100;SDS011;4093;53.470;9.832;2024-02-15T07:33:23;69.03;;;26.63;;
8100;SDS011;4093;53.470;9.832;2024-02-15T07:35:51;56.80;;;25.60;;
8100;SDS011;4093;53.470;9.832;2024-02-15T07:38:20;59.27;;;26.47;;
8100;SDS011;4093;53.470;9.832;2024-02-15T07:40:49;54.63;;;24.83;;
8100;SDS011;4093;53.470;9.832;2024-02-15T07:43:17;57.87;;;26.47;;
8100;SDS011;4093;53.470;9.832;2024-02-15T07:45:45;50.20;;;24.57;;
8100;SDS011;4093;53.470;9.832;2024-02-15T07:48:15;49.20;;;24.13;;
8100;SDS011;4093;53.470;9.832;2024-02-15T07:50:45;59.87;;;26.33;;
8100;SDS011;4093;53.470;9.832;2024-02-15T07:53:13;55.47;;;24.60;;
8100;SDS011;4093;53.470;9.832;2024-02-15T07:55:40;53.73;;;25.73;;
8100;SDS011;4093;53.470;9.832;2024-02-15T07:58:08;50.53;;;23.93;;
8100;SDS011;4093;53.470;9.832;2024-02-15T08:00:36;50.33;;;22.30;;
8100;SDS011;4093;53.470;9.832;2024-02-15T08:03:05;45.07;;;21.30;;
8100;SDS011;4093;53.470;9.832;2024-02-15T08:05:34;47.03;;;21.00;;
8100;SDS011;4093;53.470;9.832;2024-02-15T08:08:05;40.17;;;19.87;;
8100;SDS011;4093;53.470;9.832;2024-02-15T08:10:33;38.03;;;19.80;;
8100;SDS011;4093;53.470;9.832;2024-02-15T08:13:01;38.70;;;18.73;;
8100;SDS011;4093;53.470;9.832;2024-02-15T08:15:29;37.80;;;19.13;;
8100;SDS011;4093;53.470;9.832;2024-02-15T08:17:57;37.43;;;17.27;;
8100;SDS011;4093;53.470;9.832;2024-02-15T08:20:25;34.33;;;17.17;;
8100;SDS011;4093;53.470;9.832;2024-02-15T08:22:57;34.97;;;17.07;;
8100;SDS011;4093;53.470;9.832;2024-02-15T08:25:27;29.93;;;16.00;;
8100;SDS011;4093;53.470;9.832;2024-02-15T08:27:55;31.20;;;14.70;;
8100;SDS011;4093;53.470;9.832;2024-02-15T08:30:22;29.27;;;15.13;;
8100;SDS011;4093;53.470;9.832;2024-02-15T08:32:51;26.40;;;15.63;;
8100;SDS011;4093;53.470;9.832;2024-02-15T08:35:21;28.03;;;14.50;;
8100;SDS011;4093;53.470;9.832;2024-02-15T08:37:50;25.77;;;13.73;;
8100;SDS011;4093;53.470;9.832;2024-02-15T08:40:19;21.80;;;12.80;;
8100;SDS011;4093;53.470;9.832;2024-02-15T08:42:53;27.87;;;13.67;;
8100;SDS011;4093;53.470;9.832;2024-02-15T08:45:21;22.27;;;13.10;;
8100;SDS011;4093;53.470;9.832;2024-02-15T08:47:50;28.50;;;13.67;;
8100;SDS011;4093;53.470;9.832;2024-02-15T08:50:19;23.43;;;12.83;;
8100;SDS011;4093;53.470;9.832;2024-02-15T08:52:50;24.17;;;13.27;;
8100;SDS011;4093;53.470;9.832;2024-02-15T08:55:18;27.13;;;14.87;;
8100;SDS011;4093;53.470;9.832;2024-02-15T08:57:50;28.37;;;14.53;;
8100;SDS011;4093;53.470;9.832;2024-02-15T09:00:19;26.23;;;14.60;;
8100;SDS011;4093;53.470;9.832;2024-02-15T09:02:48;30.50;;;15.53;;
8100;SDS011;4093;53.470;9.832;2024-02-15T09:05:16;28.37;;;15.20;;
8100;SDS011;4093;53.470;9.832;2024-02-15T09:07:45;28.60;;;15.77;;
8100;SDS011;4093;53.470;9.832;2024-02-15T09:10:14;31.07;;;16.87;;
8100;SDS011;4093;53.470;9.832;2024-02-15T09:12:44;34.00;;;17.97;;
8100;SDS011;4093;53.470;9.832;2024-02-15T09:15:15;30.67;;;17.23;;
8100;SDS011;4093;53.470;9.832;2024-02-15T09:17:46;36.87;;;17.60;;
8100;SDS011;4093;53.470;9.832;2024-02-15T09:20:14;30.03;;;17.23;;
8100;SDS011;4093;53.470;9.832;2024-02-15T09:22:47;33.77;;;18.80;;
8100;SDS011;4093;53.470;9.832;2024-02-15T09:25:15;35.50;;;18.97;;
8100;SDS011;4093;53.470;9.832;2024-02-15T09:27:44;38.47;;;19.70;;
8100;SDS011;4093;53.470;9.832;2024-02-15T09:30:12;37.00;;;19.30;;
8100;SDS011;4093;53.470;9.832;2024-02-15T09:32:42;34.83;;;20.13;;
8100;SDS011;4093;53.470;9.832;2024-02-15T09:35:12;36.27;;;19.80;;
8100;SDS011;4093;53.470;9.832;2024-02-15T09:37:42;34.93;;;19.43;;
8100;SDS011;4093;53.470;9.832;2024-02-15T09:40:12;35.13;;;20.07;;
8100;SDS011;4093;53.470;9.832;2024-02-15T09:42:42;32.13;;;20.07;;
8100;SDS011;4093;53.470;9.832;2024-02-15T09:45:11;33.57;;;20.57;;
8100;SDS011;4093;53.470;9.832;2024-02-15T09:47:41;30.73;;;19.93;;
8100;SDS011;4093;53.470;9.832;2024-02-15T09:50:12;42.97;;;22.03;;
8100;SDS011;4093;53.470;9.832;2024-02-15T09:52:43;36.03;;;20.00;;
8100;SDS011;4093;53.470;9.832;2024-02-15T09:55:12;35.13;;;19.93;;
8100;SDS011;4093;53.470;9.832;2024-02-15T09:57:42;43.70;;;22.67;;
8100;SDS011;4093;53.470;9.832;2024-02-15T10:00:11;42.47;;;23.30;;
8100;SDS011;4093;53.470;9.832;2024-02-15T10:02:43;45.30;;;23.80;;
8100;SDS011;4093;53.470;9.832;2024-02-15T10:05:14;44.03;;;24.97;;
8100;SDS011;4093;53.470;9.832;2024-02-15T10:07:42;42.10;;;23.47;;
8100;SDS011;4093;53.470;9.832;2024-02-15T10:10:15;44.23;;;25.60;;
8100;SDS011;4093;53.470;9.832;2024-02-15T10:12:45;46.20;;;24.73;;
8100;SDS011;4093;53.470;9.832;2024-02-15T10:15:28;44.87;;;23.67;;
8100;SDS011;4093;53.470;9.832;2024-02-15T10:18:00;43.50;;;24.50;;
8100;SDS011;4093;53.470;9.832;2024-02-15T10:20:30;42.77;;;25.07;;
8100;SDS011;4093;53.470;9.832;2024-02-15T10:23:10;51.40;;;25.87;;
8100;SDS011;4093;53.470;9.832;2024-02-15T10:25:39;50.37;;;27.53;;
8100;SDS011;4093;53.470;9.832;2024-02-15T10:28:08;44.93;;;27.07;;
8100;SDS011;4093;53.470;9.832;2024-02-15T10:30:37;49.10;;;27.10;;
8100;SDS011;4093;53.470;9.832;2024-02-15T10:33:10;53.57;;;28.83;;
8100;SDS011;4093;53.470;9.832;2024-02-15T10:35:46;48.07;;;28.53;;
8100;SDS011;4093;53.470;9.832;2024-02-15T10:38:14;53.30;;;29.77;;
8100;SDS011;4093;53.470;9.832;2024-02-15T10:40:45;53.67;;;29.87;;
8100;SDS011;4093;53.470;9.832;2024-02-15T10:43:14;60.57;;;31.03;;
8100;SDS011;4093;53.470;9.832;2024-02-15T10:45:45;49.30;;;30.73;;
8100;SDS011;4093;53.470;9.832;2024-02-15T10:48:15;56.47;;;33.93;;
8100;SDS011;4093;53.470;9.832;2024-02-15T10:50:44;53.67;;;29.93;;
8100;SDS011;4093;53.470;9.832;2024-02-15T10:53:22;55.57;;;31.30;;
8100;SDS011;4093;53.470;9.832;2024-02-15T10:55:58;53.97;;;30.97;;
8100;SDS011;4093;53.470;9.832;2024-02-15T10:58:39;54.10;;;30.60;;
8100;SDS011;4093;53.470;9.832;2024-02-15T11:01:15;50.27;;;29.77;;
8100;SDS011;4093;53.470;9.832;2024-02-15T11:03:47;53.17;;;30.40;;
8100;SDS011;4093;53.470;9.832;2024-02-15T11:06:21;54.30;;;31.70;;
8100;SDS011;4093;53.470;9.832;2024-02-15T11:08:51;49.80;;;30.43;;
8100;SDS011;4093;53.470;9.832;2024-02-15T11:11:20;61.93;;;32.13;;
8100;SDS011;4093;53.470;9.832;2024-02-15T11:13:48;55.00;;;31.20;;
8100;SDS011;4093;53.470;9.832;2024-02-15T11:19:09;54.03;;;32.63;;
8100;SDS011;4093;53.470;9.832;2024-02-15T11:21:55;50.50;;;31.97;;
8100;SDS011;4093;53.470;9.832;2024-02-15T11:24:27;57.27;;;31.23;;
8100;SDS011;4093;53.470;9.832;2024-02-15T11:26:57;59.00;;;32.67;;
8100;SDS011;4093;53.470;9.832;2024-02-15T11:29:47;54.20;;;32.23;;
8100;SDS011;4093;53.470;9.832;2024-02-15T11:32:33;54.50;;;32.10;;
8100;SDS011;4093;53.470;9.832;2024-02-15T11:35:02;57.00;;;32.87;;
8100;SDS011;4093;53.470;9.832;2024-02-15T11:43:45;54.20;;;30.73;;
8100;SDS011;4093;53.470;9.832;2024-02-15T11:46:17;44.80;;;28.83;;
8100;SDS011;4093;53.470;9.832;2024-02-15T11:48:46;48.00;;;30.27;;
8100;SDS011;4093;53.470;9.832;2024-02-15T11:51:28;40.07;;;24.57;;
8100;SDS011;4093;53.470;9.832;2024-02-15T11:54:02;37.90;;;25.03;;
8100;SDS011;4093;53.470;9.832;2024-02-15T11:56:48;37.77;;;24.80;;
8100;SDS011;4093;53.470;9.832;2024-02-15T11:59:21;36.87;;;23.60;;
8100;SDS011;4093;53.470;9.832;2024-02-15T12:01:58;37.93;;;23.33;;
8100;SDS011;4093;53.470;9.832;2024-02-15T12:04:44;36.90;;;22.17;;
8100;SDS011;4093;53.470;9.832;2024-02-15T12:07:31;29.57;;;21.07;;
8100;SDS011;4093;53.470;9.832;2024-02-15T12:10:18;33.60;;;22.23;;
8100;SDS011;4093;53.470;9.832;2024-02-15T12:13:03;29.23;;;19.90;;
8100;SDS011;4093;53.470;9.832;2024-02-15T12:15:56;31.37;;;19.47;;
8100;SDS011;4093;53.470;9.832;2024-02-15T12:18:42;24.80;;;17.97;;
8100;SDS011;4093;53.470;9.832;2024-02-15T12:21:13;26.77;;;18.83;;
8100;SDS011;4093;53.470;9.832;2024-02-15T12:23:44;25.23;;;17.93;;
8100;SDS011;4093;53.470;9.832;2024-02-15T12:26:14;23.93;;;17.57;;
8100;SDS011;4093;53.470;9.832;2024-02-15T12:28:49;26.10;;;17.53;;
8100;SDS011;4093;53.470;9.832;2024-02-15T12:31:18;25.53;;;16.17;;
8100;SDS011;4093;53.470;9.832;2024-02-15T12:33:46;24.33;;;16.73;;
8100;SDS011;4093;53.470;9.832;2024-02-15T12:36:16;21.33;;;15.63;;
8100;SDS011;4093;53.470;9.832;2024-02-15T12:38:57;21.00;;;14.43;;
8100;SDS011;4093;53.470;9.832;2024-02-15T12:41:27;18.37;;;14.33;;
8100;SDS011;4093;53.470;9.832;2024-02-15T12:43:57;22.67;;;14.80;;
8100;SDS011;4093;53.470;9.832;2024-02-15T12:46:24;19.90;;;14.97;;
8100;SDS011;4093;53.470;9.832;2024-02-15T12:49:06;19.53;;;14.97;;
8100;SDS011;4093;53.470;9.832;2024-02-15T12:51:35;16.97;;;12.97;;
8100;SDS011;4093;53.470;9.832;2024-02-15T12:54:07;18.77;;;13.87;;
8100;SDS011;4093;53.470;9.832;2024-02-15T12:56:38;17.57;;;12.83;;
8100;SDS011;4093;53.470;9.832;2024-02-15T12:59:06;20.03;;;13.97;;
8100;SDS011;4093;53.470;9.832;2024-02-15T13:01:34;19.27;;;13.30;;
8100;SDS011;4093;53.470;9.832;2024-02-15T13:04:02;20.73;;;13.17;;
8100;SDS011;4093;53.470;9.832;2024-02-15T13:06:32;17.27;;;13.37;;
8100;SDS011;4093;53.470;9.832;2024-02-15T13:09:02;21.67;;;14.23;;
8100;SDS011;4093;53.470;9.832;2024-02-15T13:11:31;22.97;;;13.57;;
8100;SDS011;4093;53.470;9.832;2024-02-15T13:14:01;18.47;;;13.60;;
8100;SDS011;4093;53.470;9.832;2024-02-15T13:16:31;18.10;;;14.37;;
8100;SDS011;4093;53.470;9.832;2024-02-15T13:18:59;20.43;;;15.43;;
8100;SDS011;4093;53.470;9.832;2024-02-15T13:21:27;21.37;;;15.97;;
8100;SDS011;4093;53.470;9.832;2024-02-15T13:23:56;23.83;;;16.17;;
8100;SDS011;4093;53.470;9.832;2024-02-15T13:26:24;21.87;;;16.23;;
8100;SDS011;4093;53.470;9.832;2024-02-15T13:28:52;24.33;;;16.03;;
8100;SDS011;4093;53.470;9.832;2024-02-15T13:31:22;20.87;;;16.07;;
8100;SDS011;4093;53.470;9.832;2024-02-15T13:33:50;24.03;;;17.17;;
8100;SDS011;4093;53.470;9.832;2024-02-15T13:36:18;26.30;;;17.70;;
8100;SDS011;4093;53.470;9.832;2024-02-15T13:38:46;21.20;;;16.80;;
8100;SDS011;4093;53.470;9.832;2024-02-15T13:41:18;20.90;;;15.80;;
8100;SDS011;4093;53.470;9.832;2024-02-15T13:43:45;23.40;;;16.20;;
8100;SDS011;4093;53.470;9.832;2024-02-15T13:46:13;18.60;;;16.00;;
8100;SDS011;4093;53.470;9.832;2024-02-15T13:48:43;22.60;;;16.47;;
8100;SDS011;4093;53.470;9.832;2024-02-15T13:51:11;20.47;;;16.13;;
8100;SDS011;4093;53.470;9.832;2024-02-15T13:53:40;18.80;;;15.43;;
8100;SDS011;4093;53.470;9.832;2024-02-15T13:56:09;17.63;;;14.57;;
8100;SDS011;4093;53.470;9.832;2024-02-15T13:58:37;21.77;;;14.73;;
8100;SDS011;4093;53.470;9.832;2024-02-15T14:01:05;23.33;;;15.20;;
8100;SDS011;4093;53.470;9.832;2024-02-15T14:03:33;17.73;;;14.23;;
8100;SDS011;4093;53.470;9.832;2024-02-15T14:06:02;20.77;;;15.77;;
8100;SDS011;4093;53.470;9.832;2024-02-15T14:08:30;17.43;;;14.90;;
8100;SDS011;4093;53.470;9.832;2024-02-15T14:10:58;19.47;;;15.10;;
8100;SDS011;4093;53.470;9.832;2024-02-15T14:13:26;22.63;;;16.03;;
8100;SDS011;4093;53.470;9.832;2024-02-15T14:15:56;17.50;;;14.00;;
8100;SDS011;4093;53.470;9.832;2024-02-15T14:18:25;21.93;;;15.00;;
8100;SDS011;4093;53.470;9.832;2024-02-15T14:20:54;18.00;;;15.03;;
8100;SDS011;4093;53.470;9.832;2024-02-15T14:23:23;19.73;;;14.90;;
8100;SDS011;4093;53.470;9.832;2024-02-15T14:25:53;18.57;;;14.80;;
8100;SDS011;4093;53.470;9.832;2024-02-15T14:28:26;20.83;;;15.53;;
8100;SDS011;4093;53.470;9.832;2024-02-15T14:30:54;18.30;;;15.17;;
8100;SDS011;4093;53.470;9.832;2024-02-15T14:33:54;20.50;;;16.53;;
8100;SDS011;4093;53.470;9.832;2024-02-15T14:36:22;20.33;;;16.30;;
8100;SDS011;4093;53.470;9.832;2024-02-15T14:38:51;17.33;;;14.20;;
8100;SDS011;4093;53.470;9.832;2024-02-15T14:41:21;20.60;;;16.30;;
8100;SDS011;4093;53.470;9.832;2024-02-15T14:43:58;18.13;;;14.97;;
8100;SDS011;4093;53.470;9.832;2024-02-15T14:46:26;22.97;;;16.77;;
8100;SDS011;4093;53.470;9.832;2024-02-15T14:48:55;20.90;;;16.97;;
8100;SDS011;4093;53.470;9.832;2024-02-15T14:51:24;19.77;;;16.10;;
8100;SDS011;4093;53.470;9.832;2024-02-15T14:53:54;20.70;;;15.97;;
8100;SDS011;4093;53.470;9.832;2024-02-15T14:56:22;20.97;;;16.17;;
8100;SDS011;4093;53.470;9.832;2024-02-15T14:58:50;18.33;;;14.90;;
8100;SDS011;4093;53.470;9.832;2024-02-15T15:01:18;17.37;;;15.30;;
8100;SDS011;4093;53.470;9.832;2024-02-15T15:03:53;20.40;;;16.00;;
8100;SDS011;4093;53.470;9.832;2024-02-15T15:06:24;22.40;;;16.27;;
8100;SDS011;4093;53.470;9.832;2024-02-15T15:09:11;18.63;;;14.73;;
8100;SDS011;4093;53.470;9.832;2024-02-15T15:11:56;19.57;;;15.00;;
8100;SDS011;4093;53.470;9.832;2024-02-15T15:14:42;19.37;;;15.90;;